sensor_id;sensor_type;location;lat;lon;timestamp;pressure;altitude;pressure_sealevel;temperature;humidity
24280;BME280;12395;42.808;23.408;2022-10-20T00:01:06;95342.44;;;10.36;90.49
24280;BME280;12395;42.808;23.408;2022-10-20T00:03:32;95329.38;;;10.28;90.42
24280;BME280;12395;42.808;23.408;2022-10-20T00:06:18;95340.41;;;10.38;89.11
24280;BME280;12395;42.808;23.408;2022-10-20T00:08:45;95342.03;;;10.39;89.93
24280;BME280;12395;42.808;23.408;2022-10-20T00:11:13;95347.81;;;10.49;89.33
24280;BME280;12395;42.808;23.408;2022-10-20T00:13:40;95330.44;;;10.40;89.75
24280;BME280;12395;42.808;23.408;2022-10-20T00:16:06;95348.47;;;10.58;89.01
24280;BME280;12395;42.808;23.408;2022-10-20T00:18:32;95342.28;;;10.44;88.11
24280;BME280;12395;42.808;23.408;2022-10-20T00:20:57;95331.38;;;10.26;88.74
24280;BME280;12395;42.808;23.408;2022-10-20T00:23:23;95325.22;;;10.19;89.28
24280;BME280;12395;42.808;23.408;2022-10-20T00:26:02;95338.25;;;9.93;89.81
24280;BME280;12395;42.808;23.408;2022-10-20T00:28:28;95320.34;;;9.67;90.68
24280;BME280;12395;42.808;23.408;2022-10-20T00:30:54;95328.91;;;9.69;91.05
24280;BME280;12395;42.808;23.408;2022-10-20T00:33:20;95327.59;;;9.59;91.81
24280;BME280;12395;42.808;23.408;2022-10-20T00:35:45;95314.09;;;9.47;92.27
24280;BME280;12395;42.808;23.408;2022-10-20T00:38:11;95302.19;;;9.37;93.35
24280;BME280;12395;42.808;23.408;2022-10-20T00:40:36;95317.78;;;9.31;94.04
24280;BME280;12395;42.808;23.408;2022-10-20T00:43:02;95308.97;;;9.24;94.25
24280;BME280;12395;42.808;23.408;2022-10-20T00:45:28;95326.97;;;9.36;94.42
24280;BME280;12395;42.808;23.408;2022-10-20T00:48:04;95319.19;;;9.27;94.53
24280;BME280;12395;42.808;23.408;2022-10-20T00:50:36;95318.84;;;9.37;94.52
24280;BME280;12395;42.808;23.408;2022-10-20T00:53:03;95328.19;;;9.33;95.48
24280;BME280;12395;42.808;23.408;2022-10-20T00:55:31;95326.41;;;9.40;96.81
24280;BME280;12395;42.808;23.408;2022-10-20T00:57:59;95319.31;;;9.41;96.08
24280;BME280;12395;42.808;23.408;2022-10-20T01:00:25;95323.97;;;9.39;96.29
24280;BME280;12395;42.808;23.408;2022-10-20T01:02:52;95313.13;;;9.33;96.11
24280;BME280;12395;42.808;23.408;2022-10-20T01:05:19;95323.34;;;9.37;96.31
24280;BME280;12395;42.808;23.408;2022-10-20T01:07:45;95320.69;;;9.37;97.10
24280;BME280;12395;42.808;23.408;2022-10-20T01:10:10;95305.28;;;9.19;96.57
24280;BME280;12395;42.808;23.408;2022-10-20T01:12:38;95333.78;;;9.23;97.23
24280;BME280;12395;42.808;23.408;2022-10-20T01:15:24;95320.69;;;9.15;97.28
24280;BME280;12395;42.808;23.408;2022-10-20T01:18:10;95321.00;;;9.06;98.25
24280;BME280;12395;42.808;23.408;2022-10-20T01:28:54;95314.97;;;8.76;99.11
24280;BME280;12395;42.808;23.408;2022-10-20T01:34:19;95316.75;;;8.54;100.00
24280;BME280;12395;42.808;23.408;2022-10-20T01:36:55;95309.22;;;8.37;100.00
24280;BME280;12395;42.808;23.408;2022-10-20T01:39:27;95329.06;;;8.33;100.00
24280;BME280;12395;42.808;23.408;2022-10-20T01:41:58;95325.44;;;8.34;100.00
24280;BME280;12395;42.808;23.408;2022-10-20T01:44:25;95322.75;;;8.19;100.00
24280;BME280;12395;42.808;23.408;2022-10-20T01:46:53;95317.47;;;8.05;100.00
24280;BME280;12395;42.808;23.408;2022-10-20T01:49:19;95328.84;;;8.05;100.00
24280;BME280;12395;42.808;23.408;2022-10-20T01:51:46;95331.41;;;7.99;100.00
24280;BME280;12395;42.808;23.408;2022-10-20T01:54:26;95346.06;;;8.01;100.00
24280;BME280;12395;42.808;23.408;2022-10-20T02:08:29;95354.31;;;7.84;100.00
24280;BME280;12395;42.808;23.408;2022-10-20T02:11:00;95336.69;;;7.61;100.00
24280;BME280;12395;42.808;23.408;2022-10-20T02:13:28;95349.72;;;7.63;100.00
24280;BME280;12395;42.808;23.408;2022-10-20T02:15:57;95345.31;;;7.55;100.00
24280;BME280;12395;42.808;23.408;2022-10-20T02:18:33;95338.66;;;7.45;100.00
24280;BME280;12395;42.808;23.408;2022-10-20T02:21:03;95353.31;;;7.47;100.00
24280;BME280;12395;42.808;23.408;2022-10-20T02:23:30;95361.50;;;7.52;100.00
24280;BME280;12395;42.808;23.408;2022-10-20T02:25:59;95345.75;;;7.44;100.00
24280;BME280;12395;42.808;23.408;2022-10-20T02:28:25;95341.19;;;7.38;100.00
24280;BME280;12395;42.808;23.408;2022-10-20T02:30:53;95340.19;;;7.39;100.00
24280;BME280;12395;42.808;23.408;2022-10-20T02:33:19;95373.34;;;7.56;100.00
24280;BME280;12395;42.808;23.408;2022-10-20T02:35:55;95369.09;;;7.70;100.00
24280;BME280;12395;42.808;23.408;2022-10-20T02:38:20;95357.03;;;7.53;100.00
24280;BME280;12395;42.808;23.408;2022-10-20T02:40:46;95375.44;;;7.61;100.00
24280;BME280;12395;42.808;23.408;2022-10-20T02:43:11;95373.34;;;7.56;100.00
24280;BME280;12395;42.808;23.408;2022-10-20T02:45:37;95376.97;;;7.55;100.00
24280;BME280;12395;42.808;23.408;2022-10-20T02:48:03;95361.94;;;7.41;100.00
24280;BME280;12395;42.808;23.408;2022-10-20T02:50:29;95362.91;;;7.40;100.00
24280;BME280;12395;42.808;23.408;2022-10-20T02:52:54;95357.28;;;7.43;100.00
24280;BME280;12395;42.808;23.408;2022-10-20T02:55:19;95358.16;;;7.36;100.00
24280;BME280;12395;42.808;23.408;2022-10-20T02:57:45;95369.84;;;7.41;100.00
24280;BME280;12395;42.808;23.408;2022-10-20T03:00:11;95362.28;;;7.38;100.00
24280;BME280;12395;42.808;23.408;2022-10-20T03:02:36;95373.72;;;7.31;100.00
24280;BME280;12395;42.808;23.408;2022-10-20T03:05:02;95381.69;;;7.23;100.00
24280;BME280;12395;42.808;23.408;2022-10-20T03:07:27;95367.72;;;7.14;100.00
24280;BME280;12395;42.808;23.408;2022-10-20T03:09:53;95390.78;;;7.12;100.00
24280;BME280;12395;42.808;23.408;2022-10-20T03:12:18;95380.47;;;7.03;100.00
24280;BME280;12395;42.808;23.408;2022-10-20T03:14:43;95362.47;;;6.83;100.00
24280;BME280;12395;42.808;23.408;2022-10-20T03:17:09;95366.59;;;6.86;100.00
24280;BME280;12395;42.808;23.408;2022-10-20T03:19:35;95376.09;;;6.87;100.00
24280;BME280;12395;42.808;23.408;2022-10-20T03:22:00;95378.75;;;6.87;100.00
24280;BME280;12395;42.808;23.408;2022-10-20T03:24:25;95384.66;;;6.89;100.00
24280;BME280;12395;42.808;23.408;2022-10-20T03:26:51;95380.41;;;6.88;100.00
24280;BME280;12395;42.808;23.408;2022-10-20T03:29:16;95379.44;;;6.81;100.00
24280;BME280;12395;42.808;23.408;2022-10-20T03:31:42;95396.53;;;6.85;100.00
24280;BME280;12395;42.808;23.408;2022-10-20T03:34:07;95401.84;;;6.77;100.00
24280;BME280;12395;42.808;23.408;2022-10-20T03:36:33;95395.41;;;6.79;100.00
24280;BME280;12395;42.808;23.408;2022-10-20T03:38:59;95398.19;;;6.78;100.00
24280;BME280;12395;42.808;23.408;2022-10-20T03:41:28;95413.69;;;6.81;100.00
24280;BME280;12395;42.808;23.408;2022-10-20T03:43:53;95412.44;;;6.61;100.00
24280;BME280;12395;42.808;23.408;2022-10-20T03:46:19;95394.03;;;6.53;100.00
24280;BME280;12395;42.808;23.408;2022-10-20T03:48:44;95400.78;;;6.55;100.00
24280;BME280;12395;42.808;23.408;2022-10-20T03:51:10;95417.84;;;6.67;100.00
24280;BME280;12395;42.808;23.408;2022-10-20T03:53:36;95406.50;;;6.59;100.00
24280;BME280;12395;42.808;23.408;2022-10-20T03:56:09;95424.47;;;6.55;100.00
24280;BME280;12395;42.808;23.408;2022-10-20T03:58:35;95396.75;;;6.37;100.00
24280;BME280;12395;42.808;23.408;2022-10-20T04:01:01;95407.78;;;6.32;100.00
24280;BME280;12395;42.808;23.408;2022-10-20T04:03:26;95429.81;;;6.39;100.00
24280;BME280;12395;42.808;23.408;2022-10-20T04:05:52;95414.50;;;6.27;100.00
24280;BME280;12395;42.808;23.408;2022-10-20T04:08:17;95411.41;;;6.23;100.00
24280;BME280;12395;42.808;23.408;2022-10-20T04:10:43;95421.09;;;6.31;100.00
24280;BME280;12395;42.808;23.408;2022-10-20T04:13:08;95416.50;;;6.33;100.00
24280;BME280;12395;42.808;23.408;2022-10-20T04:15:33;95411.88;;;6.35;100.00
24280;BME280;12395;42.808;23.408;2022-10-20T04:17:59;95425.84;;;6.35;100.00
24280;BME280;12395;42.808;23.408;2022-10-20T04:20:24;95415.69;;;6.24;100.00
24280;BME280;12395;42.808;23.408;2022-10-20T04:22:50;95401.41;;;6.10;100.00
24280;BME280;12395;42.808;23.408;2022-10-20T04:25:15;95421.47;;;6.19;100.00
24280;BME280;12395;42.808;23.408;2022-10-20T04:27:41;95428.53;;;6.19;100.00
24280;BME280;12395;42.808;23.408;2022-10-20T04:30:07;95426.03;;;6.26;100.00
24280;BME280;12395;42.808;23.408;2022-10-20T04:32:33;95419.81;;;6.18;100.00
24280;BME280;12395;42.808;23.408;2022-10-20T04:34:58;95422.44;;;6.18;100.00
24280;BME280;12395;42.808;23.408;2022-10-20T04:37:24;95416.84;;;6.21;100.00
24280;BME280;12395;42.808;23.408;2022-10-20T04:39:49;95423.75;;;6.22;100.00
24280;BME280;12395;42.808;23.408;2022-10-20T04:42:16;95408.31;;;6.19;100.00
24280;BME280;12395;42.808;23.408;2022-10-20T04:44:42;95403.72;;;6.13;100.00
24280;BME280;12395;42.808;23.408;2022-10-20T04:47:07;95419.66;;;6.20;100.00
24280;BME280;12395;42.808;23.408;2022-10-20T04:49:33;95429.50;;;6.26;100.00
24280;BME280;12395;42.808;23.408;2022-10-20T04:51:58;95424.25;;;6.26;100.00
24280;BME280;12395;42.808;23.408;2022-10-20T04:54:24;95433.09;;;6.33;100.00
24280;BME280;12395;42.808;23.408;2022-10-20T04:56:49;95427.69;;;6.35;100.00
24280;BME280;12395;42.808;23.408;2022-10-20T04:59:15;95434.38;;;6.45;100.00
24280;BME280;12395;42.808;23.408;2022-10-20T05:01:40;95434.72;;;6.42;100.00
24280;BME280;12395;42.808;23.408;2022-10-20T05:04:05;95429.50;;;6.26;100.00
24280;BME280;12395;42.808;23.408;2022-10-20T05:06:32;95454.94;;;6.42;100.00
24280;BME280;12395;42.808;23.408;2022-10-20T05:09:00;95431.44;;;6.40;100.00
24280;BME280;12395;42.808;23.408;2022-10-20T05:11:27;95432.72;;;6.44;100.00
24280;BME280;12395;42.808;23.408;2022-10-20T05:13:54;95441.94;;;6.56;100.00
24280;BME280;12395;42.808;23.408;2022-10-20T05:16:20;95461.41;;;6.78;100.00
24280;BME280;12395;42.808;23.408;2022-10-20T05:18:46;95468.00;;;6.82;100.00
24280;BME280;12395;42.808;23.408;2022-10-20T05:21:14;95469.25;;;6.94;100.00
24280;BME280;12395;42.808;23.408;2022-10-20T05:23:40;95479.75;;;7.02;100.00
24280;BME280;12395;42.808;23.408;2022-10-20T05:26:12;95487.28;;;7.13;100.00
24280;BME280;12395;42.808;23.408;2022-10-20T05:28:38;95483.56;;;7.30;100.00
24280;BME280;12395;42.808;23.408;2022-10-20T05:31:07;95478.88;;;7.48;100.00
24280;BME280;12395;42.808;23.408;2022-10-20T05:33:34;95488.31;;;7.65;100.00
24280;BME280;12395;42.808;23.408;2022-10-20T05:36:04;95480.28;;;7.82;100.00
24280;BME280;12395;42.808;23.408;2022-10-20T05:38:30;95474.22;;;7.96;100.00
24280;BME280;12395;42.808;23.408;2022-10-20T05:41:07;95493.72;;;8.32;100.00
24280;BME280;12395;42.808;23.408;2022-10-20T05:43:33;95487.28;;;8.49;100.00
24280;BME280;12395;42.808;23.408;2022-10-20T05:45:59;95491.16;;;8.76;100.00
24280;BME280;12395;42.808;23.408;2022-10-20T05:48:24;95511.09;;;9.07;100.00
24280;BME280;12395;42.808;23.408;2022-10-20T05:50:49;95524.78;;;9.25;100.00
24280;BME280;12395;42.808;23.408;2022-10-20T05:53:15;95519.03;;;9.37;100.00
24280;BME280;12395;42.808;23.408;2022-10-20T05:55:40;95538.03;;;9.61;100.00
24280;BME280;12395;42.808;23.408;2022-10-20T05:58:06;95542.28;;;9.77;100.00
24280;BME280;12395;42.808;23.408;2022-10-20T06:00:31;95541.69;;;9.96;100.00
24280;BME280;12395;42.808;23.408;2022-10-20T06:03:05;95541.28;;;10.14;100.00
24280;BME280;12395;42.808;23.408;2022-10-20T06:05:30;95560.88;;;10.40;100.00
24280;BME280;12395;42.808;23.408;2022-10-20T06:07:56;95563.72;;;10.60;100.00
24280;BME280;12395;42.808;23.408;2022-10-20T06:10:21;95562.22;;;10.78;99.08
24280;BME280;12395;42.808;23.408;2022-10-20T06:12:47;95564.59;;;10.95;97.86
24280;BME280;12395;42.808;23.408;2022-10-20T06:15:12;95563.03;;;11.07;97.35
24280;BME280;12395;42.808;23.408;2022-10-20T06:17:37;95575.78;;;11.18;95.55
24280;BME280;12395;42.808;23.408;2022-10-20T06:20:03;95584.72;;;11.17;94.10
24280;BME280;12395;42.808;23.408;2022-10-20T06:22:28;95586.53;;;11.44;93.66
24280;BME280;12395;42.808;23.408;2022-10-20T06:24:54;95595.59;;;11.56;91.82
24280;BME280;12395;42.808;23.408;2022-10-20T06:27:19;95593.56;;;11.58;92.43
24280;BME280;12395;42.808;23.408;2022-10-20T06:29:45;95598.69;;;11.66;91.94
24280;BME280;12395;42.808;23.408;2022-10-20T06:32:10;95593.72;;;11.84;90.80
24280;BME280;12395;42.808;23.408;2022-10-20T06:34:35;95600.25;;;11.88;89.53
24280;BME280;12395;42.808;23.408;2022-10-20T06:37:01;95604.38;;;11.97;88.65
24280;BME280;12395;42.808;23.408;2022-10-20T06:39:26;95604.81;;;12.07;88.57
24280;BME280;12395;42.808;23.408;2022-10-20T06:41:53;95612.22;;;12.18;88.46
24280;BME280;12395;42.808;23.408;2022-10-20T06:44:21;95612.41;;;12.23;86.63
24280;BME280;12395;42.808;23.408;2022-10-20T06:46:47;95615.53;;;12.33;86.76
24280;BME280;12395;42.808;23.408;2022-10-20T06:49:13;95602.88;;;12.35;85.84
24280;BME280;12395;42.808;23.408;2022-10-20T06:51:39;95615.13;;;12.36;85.32
24280;BME280;12395;42.808;23.408;2022-10-20T06:54:04;95618.41;;;12.45;85.85
24280;BME280;12395;42.808;23.408;2022-10-20T06:56:32;95623.34;;;12.55;83.05
24280;BME280;12395;42.808;23.408;2022-10-20T06:58:59;95625.81;;;12.63;82.55
24280;BME280;12395;42.808;23.408;2022-10-20T07:01:27;95607.84;;;12.78;81.83
24280;BME280;12395;42.808;23.408;2022-10-20T07:03:56;95596.16;;;12.79;80.43
24280;BME280;12395;42.808;23.408;2022-10-20T07:06:29;95596.16;;;12.85;79.81
24280;BME280;12395;42.808;23.408;2022-10-20T07:08:56;95610.28;;;12.92;79.03
24280;BME280;12395;42.808;23.408;2022-10-20T07:11:24;95620.94;;;12.92;78.55
24280;BME280;12395;42.808;23.408;2022-10-20T07:13:50;95600.69;;;12.78;80.45
24280;BME280;12395;42.808;23.408;2022-10-20T07:16:21;95596.59;;;12.76;80.10
24280;BME280;12395;42.808;23.408;2022-10-20T07:18:47;95616.44;;;12.99;81.49
24280;BME280;12395;42.808;23.408;2022-10-20T07:21:16;95626.06;;;13.07;80.32
24280;BME280;12395;42.808;23.408;2022-10-20T07:23:42;95614.59;;;13.20;81.34
24280;BME280;12395;42.808;23.408;2022-10-20T07:28:44;95609.09;;;13.08;80.24
24280;BME280;12395;42.808;23.408;2022-10-20T07:31:57;95614.38;;;12.95;82.16
24280;BME280;12395;42.808;23.408;2022-10-20T07:34:04;95595.34;;;12.72;82.42
24280;BME280;12395;42.808;23.408;2022-10-20T07:36:32;95609.06;;;12.75;83.17
24280;BME280;12395;42.808;23.408;2022-10-20T07:38:59;95606.81;;;12.66;83.93
24280;BME280;12395;42.808;23.408;2022-10-20T07:41:26;95609.00;;;12.49;84.87
24280;BME280;12395;42.808;23.408;2022-10-20T07:43:53;95606.97;;;12.51;86.14
24280;BME280;12395;42.808;23.408;2022-10-20T07:46:18;95588.56;;;12.50;85.92
24280;BME280;12395;42.808;23.408;2022-10-20T07:48:44;95594.72;;;12.50;85.99
24280;BME280;12395;42.808;23.408;2022-10-20T07:51:25;95599.03;;;12.64;87.39
24280;BME280;12395;42.808;23.408;2022-10-20T07:54:06;95602.91;;;12.75;86.54
24280;BME280;12395;42.808;23.408;2022-10-20T07:56:35;95591.06;;;12.71;86.84
24280;BME280;12395;42.808;23.408;2022-10-20T07:59:02;95603.75;;;12.75;86.11
24280;BME280;12395;42.808;23.408;2022-10-20T08:01:27;95599.25;;;12.76;86.39
24280;BME280;12395;42.808;23.408;2022-10-20T08:03:53;95607.00;;;12.84;85.25
24280;BME280;12395;42.808;23.408;2022-10-20T08:06:18;95585.34;;;12.80;85.36
24280;BME280;12395;42.808;23.408;2022-10-20T08:08:43;95599.44;;;13.00;84.76
24280;BME280;12395;42.808;23.408;2022-10-20T08:11:10;95608.28;;;13.14;83.07
24280;BME280;12395;42.808;23.408;2022-10-20T08:13:35;95603.78;;;13.21;80.56
24280;BME280;12395;42.808;23.408;2022-10-20T08:16:02;95599.25;;;13.28;78.88
24280;BME280;12395;42.808;23.408;2022-10-20T08:18:27;95603.34;;;13.31;77.42
24280;BME280;12395;42.808;23.408;2022-10-20T08:20:53;95590.84;;;13.38;76.46
24280;BME280;12395;42.808;23.408;2022-10-20T08:23:18;95595.97;;;13.39;72.23
24280;BME280;12395;42.808;23.408;2022-10-20T08:25:44;95603.31;;;13.57;75.42
24280;BME280;12395;42.808;23.408;2022-10-20T08:28:09;95587.09;;;13.65;74.62
24280;BME280;12395;42.808;23.408;2022-10-20T08:30:35;95601.19;;;13.78;73.67
24280;BME280;12395;42.808;23.408;2022-10-20T08:33:01;95584.00;;;13.74;72.83
24280;BME280;12395;42.808;23.408;2022-10-20T08:35:26;95600.94;;;13.93;72.67
24280;BME280;12395;42.808;23.408;2022-10-20T08:37:52;95586.38;;;13.96;72.50
24280;BME280;12395;42.808;23.408;2022-10-20T08:40:28;95587.94;;;14.10;70.57
24280;BME280;12395;42.808;23.408;2022-10-20T08:42:55;95591.56;;;14.28;71.39
24280;BME280;12395;42.808;23.408;2022-10-20T08:45:23;95592.72;;;14.45;70.47
24280;BME280;12395;42.808;23.408;2022-10-20T08:47:52;95579.00;;;14.73;69.28
24280;BME280;12395;42.808;23.408;2022-10-20T08:50:20;95589.44;;;14.99;68.12
24280;BME280;12395;42.808;23.408;2022-10-20T08:52:52;95595.56;;;15.06;67.42
24280;BME280;12395;42.808;23.408;2022-10-20T08:55:29;95596.56;;;15.12;65.47
24280;BME280;12395;42.808;23.408;2022-10-20T08:57:59;95597.91;;;15.21;66.92
24280;BME280;12395;42.808;23.408;2022-10-20T09:00:25;95596.22;;;15.26;66.90
24280;BME280;12395;42.808;23.408;2022-10-20T09:02:51;95591.38;;;15.17;65.88
24280;BME280;12395;42.808;23.408;2022-10-20T09:05:20;95597.22;;;15.07;65.20
24280;BME280;12395;42.808;23.408;2022-10-20T09:07:47;95608.13;;;14.99;64.87
24280;BME280;12395;42.808;23.408;2022-10-20T09:12:49;95601.75;;;14.76;65.38
24280;BME280;12395;42.808;23.408;2022-10-20T09:15:17;95599.91;;;14.76;64.46
24280;BME280;12395;42.808;23.408;2022-10-20T09:17:53;95590.19;;;14.88;64.42
24280;BME280;12395;42.808;23.408;2022-10-20T09:20:44;95583.00;;;15.13;63.94
24280;BME280;12395;42.808;23.408;2022-10-20T09:23:39;95607.88;;;15.57;62.90
24280;BME280;12395;42.808;23.408;2022-10-20T09:26:19;95609.47;;;15.82;61.50
24280;BME280;12395;42.808;23.408;2022-10-20T09:28:50;95608.94;;;15.92;62.10
24280;BME280;12395;42.808;23.408;2022-10-20T09:31:31;95619.78;;;15.97;60.53
24280;BME280;12395;42.808;23.408;2022-10-20T09:33:57;95598.69;;;15.71;60.32
24280;BME280;12395;42.808;23.408;2022-10-20T09:36:29;95605.56;;;15.78;60.88
24280;BME280;12395;42.808;23.408;2022-10-20T09:38:55;95602.63;;;15.86;60.57
24280;BME280;12395;42.808;23.408;2022-10-20T09:41:27;95596.44;;;15.68;59.80
24280;BME280;12395;42.808;23.408;2022-10-20T09:43:56;95598.16;;;15.80;59.39
24280;BME280;12395;42.808;23.408;2022-10-20T09:46:25;95607.75;;;15.88;59.05
24280;BME280;12395;42.808;23.408;2022-10-20T09:48:51;95608.78;;;15.87;59.64
24280;BME280;12395;42.808;23.408;2022-10-20T09:51:21;95593.13;;;15.54;57.57
24280;BME280;12395;42.808;23.408;2022-10-20T09:56:24;95582.22;;;15.92;58.73
24280;BME280;12395;42.808;23.408;2022-10-20T09:58:49;95588.16;;;15.94;58.48
24280;BME280;12395;42.808;23.408;2022-10-20T10:01:16;95573.97;;;15.75;57.47
24280;BME280;12395;42.808;23.408;2022-10-20T10:03:50;95597.38;;;15.80;57.60
24280;BME280;12395;42.808;23.408;2022-10-20T10:06:40;95591.63;;;15.76;57.78
24280;BME280;12395;42.808;23.408;2022-10-20T10:11:57;95581.16;;;15.32;58.57
24280;BME280;12395;42.808;23.408;2022-10-20T10:14:23;95576.34;;;15.47;58.67
24280;BME280;12395;42.808;23.408;2022-10-20T10:16:49;95582.03;;;15.51;58.75
24280;BME280;12395;42.808;23.408;2022-10-20T10:19:18;95581.78;;;15.59;57.12
24280;BME280;12395;42.808;23.408;2022-10-20T10:21:55;95585.03;;;15.79;56.90
24280;BME280;12395;42.808;23.408;2022-10-20T10:27:02;95576.31;;;16.49;55.82
24280;BME280;12395;42.808;23.408;2022-10-20T10:29:33;95553.94;;;16.62;54.79
24280;BME280;12395;42.808;23.408;2022-10-20T10:35:05;95583.16;;;16.45;53.22
24280;BME280;12395;42.808;23.408;2022-10-20T10:37:32;95575.00;;;16.40;54.31
24280;BME280;12395;42.808;23.408;2022-10-20T10:39:59;95559.66;;;16.36;53.51
24280;BME280;12395;42.808;23.408;2022-10-20T10:51:04;95544.78;;;16.10;53.27
24280;BME280;12395;42.808;23.408;2022-10-20T10:56:48;95541.44;;;16.44;52.46
24280;BME280;12395;42.808;23.408;2022-10-20T10:59:32;95541.38;;;16.62;52.82
24280;BME280;12395;42.808;23.408;2022-10-20T11:02:31;95530.66;;;16.51;52.31
24280;BME280;12395;42.808;23.408;2022-10-20T11:08:06;95531.25;;;16.64;51.52
24280;BME280;12395;42.808;23.408;2022-10-20T11:26:38;95505.09;;;16.66;50.69
24280;BME280;12395;42.808;23.408;2022-10-20T11:29:22;95509.75;;;16.59;50.73
24280;BME280;12395;42.808;23.408;2022-10-20T11:34:29;95511.94;;;16.62;49.68
24280;BME280;12395;42.808;23.408;2022-10-20T11:37:24;95512.88;;;16.56;49.74
24280;BME280;12395;42.808;23.408;2022-10-20T11:45:27;95506.88;;;16.43;49.61
24280;BME280;12395;42.808;23.408;2022-10-20T11:48:03;95493.88;;;16.46;50.19
24280;BME280;12395;42.808;23.408;2022-10-20T11:50:33;95481.19;;;16.42;49.75
24280;BME280;12395;42.808;23.408;2022-10-20T11:53:18;95492.41;;;16.50;49.64
24280;BME280;12395;42.808;23.408;2022-10-20T11:56:10;95492.19;;;16.63;50.84
24280;BME280;12395;42.808;23.408;2022-10-20T12:09:19;95484.88;;;16.82;48.67
24280;BME280;12395;42.808;23.408;2022-10-20T12:11:54;95452.41;;;16.67;49.12
24280;BME280;12395;42.808;23.408;2022-10-20T12:17:13;95467.41;;;16.79;48.43
24280;BME280;12395;42.808;23.408;2022-10-20T12:19:40;95475.78;;;16.83;47.94
24280;BME280;12395;42.808;23.408;2022-10-20T12:27:21;95469.97;;;16.86;48.18
24280;BME280;12395;42.808;23.408;2022-10-20T12:34:47;95474.28;;;16.98;46.54
24280;BME280;12395;42.808;23.408;2022-10-20T12:37:29;95477.78;;;16.99;46.56
24280;BME280;12395;42.808;23.408;2022-10-20T12:40:00;95476.50;;;17.02;46.86
24280;BME280;12395;42.808;23.408;2022-10-20T12:42:47;95466.38;;;16.92;45.91
24280;BME280;12395;42.808;23.408;2022-10-20T12:45:49;95478.59;;;17.00;46.44
24280;BME280;12395;42.808;23.408;2022-10-20T12:48:22;95455.53;;;16.98;45.54
24280;BME280;12395;42.808;23.408;2022-10-20T12:50:49;95470.47;;;17.06;45.64
24280;BME280;12395;42.808;23.408;2022-10-20T12:53:24;95471.38;;;17.00;45.85
24280;BME280;12395;42.808;23.408;2022-10-20T12:56:02;95465.22;;;17.00;44.37
24280;BME280;12395;42.808;23.408;2022-10-20T12:58:31;95457.41;;;16.98;44.74
24280;BME280;12395;42.808;23.408;2022-10-20T13:03:38;95474.66;;;17.02;43.93
24280;BME280;12395;42.808;23.408;2022-10-20T13:16:41;95477.31;;;17.14;44.34
24280;BME280;12395;42.808;23.408;2022-10-20T13:19:19;95482.66;;;17.14;44.39
24280;BME280;12395;42.808;23.408;2022-10-20T13:21:46;95462.31;;;17.01;44.78
24280;BME280;12395;42.808;23.408;2022-10-20T13:24:24;95470.44;;;17.18;44.09
24280;BME280;12395;42.808;23.408;2022-10-20T13:26:52;95476.94;;;17.22;43.89
24280;BME280;12395;42.808;23.408;2022-10-20T13:29:39;95468.69;;;17.12;43.92
24280;BME280;12395;42.808;23.408;2022-10-20T13:32:21;95455.44;;;17.05;44.54
24280;BME280;12395;42.808;23.408;2022-10-20T13:35:00;95473.59;;;17.15;44.94
24280;BME280;12395;42.808;23.408;2022-10-20T13:43:19;95473.81;;;17.13;43.95
24280;BME280;12395;42.808;23.408;2022-10-20T13:48:24;95478.59;;;17.11;43.42
24280;BME280;12395;42.808;23.408;2022-10-20T13:51:30;95454.41;;;17.06;44.29
24280;BME280;12395;42.808;23.408;2022-10-20T13:53:59;95460.22;;;17.03;43.88
24280;BME280;12395;42.808;23.408;2022-10-20T13:56:34;95461.16;;;16.97;43.67
24280;BME280;12395;42.808;23.408;2022-10-20T14:01:29;95471.84;;;16.97;43.97
24280;BME280;12395;42.808;23.408;2022-10-20T14:03:55;95472.22;;;16.89;44.78
24280;BME280;12395;42.808;23.408;2022-10-20T14:08:57;95482.81;;;16.95;44.60
24280;BME280;12395;42.808;23.408;2022-10-20T14:11:25;95473.94;;;16.95;45.01
24280;BME280;12395;42.808;23.408;2022-10-20T14:13:53;95466.63;;;16.90;45.67
24280;BME280;12395;42.808;23.408;2022-10-20T14:16:21;95471.25;;;16.83;44.90
24280;BME280;12395;42.808;23.408;2022-10-20T14:19:06;95477.88;;;16.81;45.80
24280;BME280;12395;42.808;23.408;2022-10-20T14:21:40;95501.06;;;16.87;45.18
24280;BME280;12395;42.808;23.408;2022-10-20T14:24:12;95493.72;;;16.82;44.90
24280;BME280;12395;42.808;23.408;2022-10-20T14:26:41;95481.16;;;16.71;45.00
24280;BME280;12395;42.808;23.408;2022-10-20T14:29:10;95478.22;;;16.61;45.33
24280;BME280;12395;42.808;23.408;2022-10-20T14:31:36;95491.47;;;16.56;44.69
24280;BME280;12395;42.808;23.408;2022-10-20T14:34:02;95487.03;;;16.50;44.79
24280;BME280;12395;42.808;23.408;2022-10-20T14:36:28;95475.16;;;16.46;45.57
24280;BME280;12395;42.808;23.408;2022-10-20T14:38:56;95481.69;;;16.50;45.40
24280;BME280;12395;42.808;23.408;2022-10-20T14:41:30;95477.91;;;16.40;45.41
24280;BME280;12395;42.808;23.408;2022-10-20T14:44:02;95470.19;;;16.32;45.67
24280;BME280;12395;42.808;23.408;2022-10-20T14:46:32;95476.03;;;16.40;45.33
24280;BME280;12395;42.808;23.408;2022-10-20T14:48:58;95478.59;;;16.35;45.44
24280;BME280;12395;42.808;23.408;2022-10-20T14:52:00;95485.53;;;16.25;46.11
24280;BME280;12395;42.808;23.408;2022-10-20T14:57:01;95474.31;;;16.04;46.59
24280;BME280;12395;42.808;23.408;2022-10-20T14:59:52;95488.50;;;16.05;46.56
24280;BME280;12395;42.808;23.408;2022-10-20T15:02:39;95475.97;;;15.87;47.28
24280;BME280;12395;42.808;23.408;2022-10-20T15:05:31;95485.94;;;15.80;48.03
24280;BME280;12395;42.808;23.408;2022-10-20T15:08:20;95487.31;;;15.71;49.17
24280;BME280;12395;42.808;23.408;2022-10-20T15:10:48;95480.47;;;15.57;49.17
24280;BME280;12395;42.808;23.408;2022-10-20T15:13:22;95485.16;;;15.43;49.55